Time;durP1;ratioP1;P1;durP2;ratioP2;P2;SDS_P1;SDS_P2;PMS_P1;PMS_P2;Temp;Humidity;BMP_temperature;BMP_pressure;BME280_temperature;BME280_humidity;BME280_pressure;Samples;Min_cycle;Max_cycle;Signal;HPM_P1;HPM_P2
2021/06/11 00:01:00;;;;;;;8.43;5.00;;;;;;;16.14;96.57;99973.86;1660952;85;21163;-67
2021/06/11 00:03:28;;;;;;;8.58;4.67;;;;;;;16.09;96.55;99972.48;1661078;86;21183;-66
2021/06/11 00:05:55;;;;;;;9.05;5.20;;;;;;;16.10;96.80;99982.27;1660720;85;21528;-68
2021/06/11 00:08:23;;;;;;;9.80;4.50;;;;;;;16.16;96.64;99978.64;1660959;86;21176;-67
2021/06/11 00:10:51;;;;;;;6.85;4.80;;;;;;;16.18;96.19;99975.27;1661473;85;21506;-66
2021/06/11 00:13:18;;;;;;;7.75;5.25;;;;;;;16.19;95.72;99974.28;1660834;86;21442;-67
2021/06/11 00:15:46;;;;;;;6.72;4.78;;;;;;;16.21;95.28;99971.77;1660969;86;21433;-67
2021/06/11 00:18:14;;;;;;;8.03;5.60;;;;;;;16.21;94.98;99972.27;1660402;86;21111;-67
2021/06/11 00:20:41;;;;;;;7.50;5.30;;;;;;;16.21;94.90;99976.31;1660946;85;21110;-67
2021/06/11 00:23:09;;;;;;;9.45;5.45;;;;;;;16.17;94.69;99978.47;1661005;86;21381;-66
2021/06/11 00:25:37;;;;;;;7.20;5.30;;;;;;;16.10;94.75;99977.40;1661510;85;21463;-66
2021/06/11 00:28:05;;;;;;;7.00;5.20;;;;;;;16.06;95.02;99975.49;1660867;85;21091;-66
2021/06/11 00:30:33;;;;;;;6.62;5.25;;;;;;;16.07;95.01;99968.20;1660932;86;21195;-66
2021/06/11 00:33:01;;;;;;;7.45;4.80;;;;;;;16.07;94.97;99974.47;1660907;85;21615;-66
2021/06/11 00:35:30;;;;;;;7.97;5.50;;;;;;;16.03;94.64;99972.23;1660955;86;22322;-66
2021/06/11 00:37:58;;;;;;;8.93;5.65;;;;;;;15.93;94.52;99976.83;1660781;85;21428;-67
2021/06/11 00:40:26;;;;;;;10.50;5.50;;;;;;;15.84;95.03;99980.43;1660744;86;21028;-66
2021/06/11 00:42:54;;;;;;;12.47;5.30;;;;;;;15.76;95.47;99979.81;1660925;86;21075;-66
2021/06/11 00:45:22;;;;;;;8.75;5.67;;;;;;;15.71;96.24;99982.09;1661388;85;21681;-66
2021/06/11 00:47:50;;;;;;;9.93;5.70;;;;;;;15.70;96.50;99994.41;1661078;86;22623;-66
2021/06/11 00:50:25;;;;;;;10.48;5.05;;;;;;;15.70;96.81;99987.16;1660941;85;21120;-66
2021/06/11 00:52:54;;;;;;;7.53;5.35;;;;;;;15.76;96.87;99983.86;1660804;86;21515;-66
2021/06/11 00:55:22;;;;;;;9.03;6.25;;;;;;;15.81;96.77;99986.95;1660922;86;21112;-66
2021/06/11 00:57:50;;;;;;;9.95;5.67;;;;;;;15.86;96.77;99987.38;1662311;85;21045;-66
2021/06/11 01:00:19;;;;;;;7.28;5.60;;;;;;;15.94;96.66;99983.42;1660518;85;22435;-67
2021/06/11 01:02:47;;;;;;;9.48;5.97;;;;;;;16.02;96.51;99986.24;1661198;85;21552;-66
2021/06/11 01:05:17;;;;;;;9.08;5.40;;;;;;;16.11;96.27;99984.48;1661091;85;21064;-67
2021/06/11 01:07:49;;;;;;;7.17;5.50;;;;;;;16.20;96.03;99980.88;1661017;86;21107;-66
2021/06/11 01:10:20;;;;;;;6.85;5.28;;;;;;;16.26;95.58;99976.73;1660852;86;21513;-71
2021/06/11 01:12:49;;;;;;;5.80;4.75;;;;;;;16.31;95.15;99969.86;1630179;86;21191;-66
2021/06/11 01:15:21;;;;;;;7.05;5.45;;;;;;;16.35;94.66;99966.36;1661131;85;21044;-66
2021/06/11 01:17:53;;;;;;;7.25;5.67;;;;;;;16.40;94.21;99978.94;1661078;86;21023;-67
2021/06/11 01:20:23;;;;;;;7.85;5.95;;;;;;;16.34;93.51;99979.02;1660901;86;21115;-67
2021/06/11 01:23:12;;;;;;;10.55;6.30;;;;;;;16.28;93.77;99980.98;1660642;86;21040;-67
2021/06/11 01:26:23;;;;;;;11.33;5.80;;;;;;;16.29;94.01;99977.28;1661136;85;22132;-66
2021/06/11 01:28:54;;;;;;;12.03;6.60;;;;;;;16.34;93.92;99973.61;1660907;86;21931;-66
2021/06/11 01:31:22;;;;;;;10.98;5.87;;;;;;;16.39;93.79;99983.48;1660931;86;21143;-66
2021/06/11 01:33:54;;;;;;;12.15;6.47;;;;;;;16.43;93.77;99978.63;1660555;86;21430;-66
2021/06/11 01:36:25;;;;;;;10.63;6.47;;;;;;;16.48;93.67;99983.92;1660982;85;21067;-66
2021/06/11 01:38:53;;;;;;;13.35;6.45;;;;;;;16.51;93.38;99992.23;1661033;85;21371;-67
2021/06/11 01:41:21;;;;;;;9.28;5.92;;;;;;;16.51;93.21;99994.93;1660692;86;21162;-67
2021/06/11 01:43:52;;;;;;;8.45;6.45;;;;;;;16.45;92.75;99992.34;1634681;86;21356;-66
2021/06/11 01:46:23;;;;;;;10.43;6.28;;;;;;;16.37;93.02;99994.94;1661083;85;21115;-67
2021/06/11 01:48:52;;;;;;;8.10;5.97;;;;;;;16.32;93.20;99989.15;1660977;85;21601;-66
2021/06/11 01:51:20;;;;;;;10.00;5.70;;;;;;;16.33;93.59;99990.00;1660910;85;22693;-66
2021/06/11 01:53:48;;;;;;;12.73;5.65;;;;;;;16.34;93.66;99997.09;1630366;86;21076;-66
2021/06/11 01:56:17;;;;;;;6.90;5.92;;;;;;;16.33;93.93;99998.12;1660428;85;21020;-66
2021/06/11 01:58:46;;;;;;;8.10;6.30;;;;;;;16.34;93.77;99992.54;1661024;85;21064;-66
2021/06/11 02:01:14;;;;;;;8.98;6.15;;;;;;;16.35;93.86;99990.70;1660938;86;21071;-70
2021/06/11 02:03:42;;;;;;;7.85;5.37;;;;;;;16.37;93.90;99991.38;1661068;86;22176;-65
2021/06/11 02:06:13;;;;;;;10.35;5.90;;;;;;;16.35;93.46;99992.05;1634647;86;21012;-67
2021/06/11 02:08:45;;;;;;;6.78;6.08;;;;;;;16.28;93.79;99989.09;1661121;86;21044;-66
2021/06/11 02:11:13;;;;;;;11.80;7.13;;;;;;;16.28;94.04;99989.09;1661177;85;21087;-66
2021/06/11 02:13:47;;;;;;;9.85;6.70;;;;;;;16.29;94.24;99995.36;1660890;86;21194;-65
2021/06/11 02:16:57;;;;;;;10.32;7.20;;;;;;;16.34;94.39;99991.19;1882997;75;22082;-66
2021/06/11 02:19:24;;;;;;;7.25;6.45;;;;;;;16.27;94.52;99990.09;1860191;77;20859;-64
2021/06/11 02:21:51;;;;;;;10.55;7.00;;;;;;;16.28;94.92;99988.23;1860131;77;21124;-64
2021/06/11 02:24:20;;;;;;;10.43;5.95;;;;;;;16.34;95.13;99985.78;1860114;77;20871;-64
2021/06/11 02:26:47;;;;;;;9.60;6.15;;;;;;;16.39;94.98;99982.14;1859859;77;20989;-65
2021/06/11 02:29:14;;;;;;;7.45;6.55;;;;;;;16.40;94.93;99986.52;1860195;77;20894;-66
2021/06/11 02:31:41;;;;;;;8.03;5.97;;;;;;;16.45;94.94;99985.58;1860070;76;20962;-66
2021/06/11 02:34:08;;;;;;;11.50;6.25;;;;;;;16.48;94.58;99984.42;1859875;77;21128;-66
2021/06/11 02:36:35;;;;;;;10.68;6.85;;;;;;;16.49;94.45;99988.84;1860033;77;21001;-66
2021/06/11 02:39:04;;;;;;;9.95;7.20;;;;;;;16.48;94.65;99989.33;1858524;77;21399;-65
2021/06/11 02:41:35;;;;;;;11.03;6.35;;;;;;;16.53;94.56;99985.66;1858140;77;20984;-66
2021/06/11 02:44:02;;;;;;;13.25;7.37;;;;;;;16.58;94.44;99986.59;1857717;77;20973;-66
2021/06/11 02:46:33;;;;;;;14.87;7.58;;;;;;;16.63;94.40;99987.50;1796290;77;21120;-66
2021/06/11 02:49:13;;;;;;;14.20;7.28;;;;;;;16.70;94.41;99990.77;1858063;77;20985;-66
2021/06/11 02:51:43;;;;;;;10.25;6.65;;;;;;;16.77;94.39;99991.00;1858145;77;20979;-66
2021/06/11 02:54:13;;;;;;;9.58;6.10;;;;;;;16.85;94.20;99991.10;1827240;77;21024;-66
2021/06/11 02:56:44;;;;;;;10.25;5.70;;;;;;;16.89;93.69;99998.73;1858681;77;20909;-66
2021/06/11 02:59:27;;;;;;;51.23;26.50;;;;;;;16.88;93.62;99988.94;1827817;77;21114;-67
2021/06/11 03:01:57;;;;;;;66.53;35.95;;;;;;;16.89;93.52;99996.03;1857814;77;21452;-67
2021/06/11 03:04:25;;;;;;;30.05;19.27;;;;;;;16.93;93.43;99992.02;1858062;77;20987;-67
2021/06/11 03:06:52;;;;;;;23.30;13.20;;;;;;;16.96;92.97;99990.34;1858427;77;21000;-66
2021/06/11 03:09:22;;;;;;;16.30;9.65;;;;;;;16.87;92.79;99989.08;1858326;77;21011;-66
2021/06/11 03:11:50;;;;;;;14.23;8.28;;;;;;;16.80;93.31;99992.91;1824448;77;21099;-67
2021/06/11 03:14:17;;;;;;;12.98;7.78;;;;;;;16.78;93.92;99997.63;1779430;80;21053;-67
2021/06/11 03:16:48;;;;;;;12.90;7.65;;;;;;;16.82;94.42;99997.68;1799707;79;20934;-66
2021/06/11 03:19:18;;;;;;;10.98;7.53;;;;;;;16.89;94.64;99989.80;1770263;81;20962;-66
2021/06/11 03:21:50;;;;;;;12.35;7.78;;;;;;;16.96;94.62;99994.41;1832346;78;21434;-66
2021/06/11 03:24:32;;;;;;;10.05;7.20;;;;;;;17.03;94.32;99992.78;1818452;78;21109;-69
2021/06/11 03:27:05;;;;;;;12.63;7.33;;;;;;;17.08;94.22;99991.84;1832437;78;21026;-66
2021/06/11 03:29:39;;;;;;;17.40;8.03;;;;;;;17.12;94.01;99999.97;1832251;78;21454;-67
2021/06/11 03:32:11;;;;;;;11.93;7.00;;;;;;;17.07;94.29;99999.60;1800724;79;21002;-66
2021/06/11 03:34:41;;;;;;;9.55;7.03;;;;;;;17.01;94.78;99991.25;1769616;81;21036;-66
2021/06/11 03:37:12;;;;;;;12.45;6.62;;;;;;;16.99;94.96;100000.04;1832175;77;21126;-65
2021/06/11 03:39:43;;;;;;;11.38;7.30;;;;;;;16.94;95.07;99998.28;1831949;77;21034;-66
2021/06/11 03:42:10;;;;;;;8.68;7.03;;;;;;;16.90;95.47;100003.16;1831729;77;21022;-67
2021/06/11 03:44:43;;;;;;;8.48;7.33;;;;;;;16.91;95.81;100003.52;1831770;77;20951;-66
2021/06/11 03:47:16;;;;;;;8.95;7.75;;;;;;;17.00;96.09;100009.34;1832050;77;21474;-66
2021/06/11 03:49:44;;;;;;;14.45;8.08;;;;;;;17.08;95.74;100012.14;1801528;79;21793;-66
2021/06/11 03:52:12;;;;;;;9.18;7.10;;;;;;;17.19;95.81;100012.38;1801150;79;21046;-65
2021/06/11 03:54:44;;;;;;;9.70;6.97;;;;;;;17.31;95.62;100014.36;1800388;79;21045;-66
2021/06/11 03:57:11;;;;;;;9.13;6.97;;;;;;;17.40;95.41;100008.84;1801468;79;21466;-66
2021/06/11 03:59:39;;;;;;;11.05;7.25;;;;;;;17.53;95.15;100015.20;1831875;78;21097;-65
2021/06/11 04:02:06;;;;;;;11.48;8.33;;;;;;;17.62;94.22;100014.27;1831876;78;21908;-65
2021/06/11 04:04:33;;;;;;;11.43;7.33;;;;;;;17.73;94.07;100015.38;1831514;78;21046;-65
2021/06/11 04:07:26;;;;;;;9.88;7.17;;;;;;;17.86;93.43;100019.01;1801172;79;20995;-66
2021/06/11 04:10:11;;;;;;;11.05;6.47;;;;;;;17.96;92.61;100013.83;1831884;77;21474;-67
2021/06/11 04:12:55;;;;;;;10.98;7.85;;;;;;;18.17;91.94;100009.86;1831766;77;21034;-64
2021/06/11 04:15:22;;;;;;;9.80;7.97;;;;;;;18.33;90.89;100016.21;1833176;77;21267;-65
2021/06/11 04:18:04;;;;;;;12.47;8.00;;;;;;;18.43;90.20;100014.22;1851305;77;21018;-66
2021/06/11 04:20:31;;;;;;;11.55;8.33;;;;;;;18.52;89.43;100023.26;1851106;77;20970;-64
2021/06/11 04:23:00;;;;;;;9.43;7.95;;;;;;;18.58;88.81;100020.73;1779165;80;21105;-64
2021/06/11 04:25:29;;;;;;;12.85;7.58;;;;;;;18.64;88.29;100024.14;1800526;79;20954;-64
2021/06/11 04:27:57;;;;;;;10.65;7.37;;;;;;;18.70;87.72;100020.44;1778924;80;21878;-64
2021/06/11 04:30:25;;;;;;;10.58;7.55;;;;;;;18.74;87.32;100019.10;1800233;79;21406;-65
2021/06/11 04:32:53;;;;;;;11.05;7.42;;;;;;;18.79;87.13;100024.87;1850964;77;20947;-65
2021/06/11 04:35:24;;;;;;;11.15;7.90;;;;;;;18.80;86.78;100019.28;1850849;77;20966;-64
2021/06/11 04:37:51;;;;;;;8.73;6.97;;;;;;;18.84;86.85;100017.91;1850500;77;20963;-65
2021/06/11 04:40:19;;;;;;;10.08;7.25;;;;;;;18.94;86.89;100020.47;1850901;77;21151;-65
2021/06/11 04:42:47;;;;;;;11.18;7.03;;;;;;;19.01;86.50;100027.79;1778871;80;21057;-64
2021/06/11 04:45:15;;;;;;;12.03;7.03;;;;;;;19.08;86.56;100030.18;1799452;79;21497;-65
2021/06/11 04:47:41;;;;;;;8.60;6.62;;;;;;;19.17;86.41;100023.73;1776607;80;21014;-65
2021/06/11 04:50:09;;;;;;;15.85;11.70;;;;;;;19.21;85.80;100021.53;1798988;79;21066;-65
2021/06/11 04:52:36;;;;;;;17.12;8.35;;;;;;;19.27;85.98;100024.06;1850131;77;21070;-69
2021/06/11 04:55:07;;;;;;;11.20;7.35;;;;;;;19.35;85.59;100029.52;1847784;77;21458;-66
2021/06/11 04:57:34;;;;;;;11.55;7.03;;;;;;;19.46;85.17;100031.41;1787107;80;20985;-69
2021/06/11 05:00:05;;;;;;;8.45;6.35;;;;;;;19.58;84.56;100029.20;1755935;78;21039;-69
2021/06/11 05:02:32;;;;;;;12.98;7.45;;;;;;;19.63;84.16;100030.38;1789118;79;21061;-71
2021/06/11 05:04:59;;;;;;;11.53;6.15;;;;;;;19.67;83.91;100030.89;1790658;78;21096;-68
2021/06/11 05:07:32;;;;;;;11.30;6.90;;;;;;;19.75;83.74;100030.04;1778717;79;21088;-68
2021/06/11 05:10:00;;;;;;;13.30;7.45;;;;;;;19.86;83.54;100022.36;1765381;79;21455;-66
2021/06/11 05:12:27;;;;;;;11.55;6.58;;;;;;;20.00;83.07;100023.02;1797726;78;21070;-68
2021/06/11 05:14:54;;;;;;;9.28;6.17;;;;;;;20.10;82.39;100029.11;1794512;79;21102;-73
2021/06/11 05:17:22;;;;;;;9.98;6.78;;;;;;;20.17;82.23;100030.61;1779234;79;21354;-71
2021/06/11 05:19:49;;;;;;;7.87;6.50;;;;;;;20.23;81.81;100033.99;1758460;80;21752;-69
2021/06/11 05:22:15;;;;;;;10.48;6.33;;;;;;;20.32;81.47;100023.98;1779652;80;21107;-67
2021/06/11 05:24:42;;;;;;;9.35;6.70;;;;;;;20.47;81.03;100031.22;1776972;78;21634;-68
2021/06/11 05:27:09;;;;;;;11.35;7.40;;;;;;;20.87;81.02;100030.67;1780310;80;21031;-68
2021/06/11 05:29:36;;;;;;;9.23;7.12;;;;;;;21.30;79.28;100025.98;1792604;78;21993;-68
2021/06/11 05:32:05;;;;;;;11.28;8.50;;;;;;;21.61;77.44;100027.23;1781312;79;20992;-70
2021/06/11 05:34:33;;;;;;;9.13;7.83;;;;;;;21.90;75.69;100029.22;1757331;80;21050;-69
2021/06/11 05:37:00;;;;;;;9.10;7.30;;;;;;;22.27;73.26;100028.27;1782420;80;21032;-71
2021/06/11 05:39:28;;;;;;;8.98;7.33;;;;;;;22.27;73.26;100028.27;1783911;78;20985;-69
2021/06/11 05:41:58;;;;;;;9.23;8.28;;;;;;;22.35;72.49;100022.73;1750525;80;21167;-70
2021/06/11 05:44:25;;;;;;;11.65;8.23;;;;;;;22.48;72.39;100029.73;1788538;80;21650;-70
2021/06/11 05:46:54;;;;;;;10.40;7.58;;;;;;;22.50;71.75;100023.55;1759072;81;21166;-73
2021/06/11 05:49:20;;;;;;;8.83;6.80;;;;;;;22.45;72.21;100030.97;1771901;80;21112;-67
2021/06/11 05:51:47;;;;;;;10.30;7.55;;;;;;;22.51;72.02;100031.56;1751214;80;21112;-66
2021/06/11 05:54:14;;;;;;;8.65;7.42;;;;;;;22.65;70.83;100025.76;1764576;80;21140;-68
2021/06/11 05:56:41;;;;;;;8.08;6.62;;;;;;;22.86;70.53;100031.80;1758300;80;21628;-67
2021/06/11 05:59:08;;;;;;;9.18;6.62;;;;;;;23.14;69.39;100030.87;1761727;80;21478;-67
2021/06/11 06:01:35;;;;;;;9.60;7.30;;;;;;;23.36;68.84;100028.13;1758091;81;21055;-71
2021/06/11 06:04:02;;;;;;;7.83;7.03;;;;;;;23.59;67.70;100030.17;1771308;80;21077;-68
2021/06/11 06:06:30;;;;;;;10.63;7.12;;;;;;;23.91;66.84;100036.97;1777289;80;21132;-67
2021/06/11 06:08:57;;;;;;;8.95;6.67;;;;;;;24.27;65.91;100033.02;1772785;80;21592;-69
2021/06/11 06:11:24;;;;;;;8.30;5.97;;;;;;;24.79;64.18;100030.23;1776905;78;21417;-72
2021/06/11 06:13:51;;;;;;;10.55;6.62;;;;;;;25.29;62.83;100028.38;1774331;78;21090;-68
2021/06/11 06:16:17;;;;;;;8.78;6.37;;;;;;;25.66;61.44;100039.31;1789418;78;21459;-68
2021/06/11 06:18:45;;;;;;;9.48;6.08;;;;;;;26.11;60.18;100031.28;1747928;81;21109;-72
2021/06/11 06:21:12;;;;;;;8.00;5.90;;;;;;;26.36;58.52;100034.20;1747445;81;21511;-71
2021/06/11 06:23:40;;;;;;;4.87;4.45;;;;;;;26.50;57.57;100037.23;1759746;79;21509;-70
2021/06/11 06:26:07;;;;;;;7.40;5.67;;;;;;;26.68;56.71;100034.09;1748096;79;21027;-67
2021/06/11 06:28:34;;;;;;;11.38;5.53;;;;;;;26.70;57.23;100033.88;1764783;81;21057;-67
2021/06/11 06:31:01;;;;;;;10.93;6.20;;;;;;;26.78;56.88;100035.84;1759804;81;21934;-69
2021/06/11 06:33:28;;;;;;;9.48;6.47;;;;;;;26.66;56.86;100032.09;1753322;81;21458;-68
2021/06/11 06:35:55;;;;;;;7.45;5.87;;;;;;;26.61;57.55;100033.82;1764425;81;21396;-72
2021/06/11 06:38:24;;;;;;;8.20;5.58;;;;;;;26.53;57.29;100039.54;1749928;79;21048;-70
2021/06/11 06:40:57;;;;;;;9.95;6.00;;;;;;;26.32;57.69;100032.41;1752838;81;21033;-70
2021/06/11 06:43:18;;;;;;;7.90;5.78;;;;;;;26.05;58.61;100043.12;1726214;81;21155;-72
2021/06/11 06:45:46;;;;;;;7.58;5.70;;;;;;;25.75;58.77;100043.53;1751346;81;21600;-70
2021/06/11 06:48:12;;;;;;;6.80;5.97;;;;;;;25.46;59.90;100041.16;1762205;81;21113;-69
2021/06/11 06:50:42;;;;;;;6.30;5.30;;;;;;;25.30;59.39;100045.67;1727810;81;21532;-70
2021/06/11 06:53:10;;;;;;;7.47;4.72;;;;;;;25.17;59.38;100042.91;1733467;81;21066;-69
2021/06/11 06:55:38;;;;;;;5.67;5.05;;;;;;;25.13;59.36;100040.25;1734052;82;21423;-68
2021/06/11 06:58:05;;;;;;;6.33;5.15;;;;;;;25.14;59.81;100043.33;1762458;80;21162;-68
2021/06/11 07:00:34;;;;;;;6.78;5.30;;;;;;;25.05;58.87;100042.68;1755435;80;21988;-68
2021/06/11 07:03:02;;;;;;;7.00;4.53;;;;;;;24.78;60.27;100049.94;1762059;79;21099;-70
2021/06/11 07:05:29;;;;;;;7.75;4.03;;;;;;;24.51;60.43;100044.52;1751470;81;21615;-68
2021/06/11 07:07:58;;;;;;;5.85;3.65;;;;;;;24.32;60.59;100046.63;1731132;82;21316;-69
2021/06/11 07:10:25;;;;;;;8.35;3.77;;;;;;;24.16;60.96;100054.66;1762115;81;21089;-71
2021/06/11 07:12:52;;;;;;;4.75;4.25;;;;;;;24.05;61.20;100047.80;1735153;81;21096;-69
2021/06/11 07:15:20;;;;;;;5.60;4.65;;;;;;;23.96;61.59;100051.73;1742708;80;21092;-67
2021/06/11 07:17:46;;;;;;;6.25;4.03;;;;;;;23.90;62.36;100046.22;1760570;80;21519;-67
2021/06/11 07:20:13;;;;;;;4.35;3.95;;;;;;;23.74;61.79;100048.18;1791875;78;21106;-68
2021/06/11 07:22:40;;;;;;;5.20;4.17;;;;;;;23.50;62.55;100042.30;1775646;79;21589;-70
